createdAt,value
2018-05-06T00:01:00.183Z,3.90
2018-05-06T00:03:29.283Z,4.10
2018-05-06T00:05:58.382Z,4.87
2018-05-06T00:08:27.474Z,4.20
2018-05-06T00:10:57.544Z,4.17
2018-05-06T00:13:26.639Z,4.80
2018-05-06T00:15:55.738Z,4.00
2018-05-06T00:18:24.821Z,4.30
2018-05-06T00:20:54.891Z,4.73
2018-05-06T00:23:24.022Z,4.63
2018-05-06T00:25:53.245Z,4.53
2018-05-06T00:28:22.337Z,4.43
2018-05-06T00:30:51.460Z,5.10
2018-05-06T00:33:20.555Z,4.53
2018-05-06T00:35:49.756Z,4.70
2018-05-06T00:38:18.845Z,5.60
2018-05-06T00:40:47.965Z,5.00
2018-05-06T00:43:17.051Z,4.93
2018-05-06T00:45:46.192Z,4.63
2018-05-06T00:48:15.365Z,4.20
2018-05-06T00:50:45.409Z,4.67
2018-05-06T00:53:14.495Z,5.00
2018-05-06T00:55:43.632Z,4.97
2018-05-06T00:58:12.728Z,5.27
2018-05-06T01:00:41.960Z,5.47
2018-05-06T01:03:11.118Z,5.30
2018-05-06T01:05:40.205Z,5.93
2018-05-06T01:08:09.429Z,5.10
2018-05-06T01:10:38.544Z,5.23
2018-05-06T01:13:07.713Z,5.00
2018-05-06T01:15:36.961Z,4.93
2018-05-06T01:18:06.122Z,5.37
2018-05-06T01:20:35.352Z,5.27
2018-05-06T01:23:04.458Z,4.60
2018-05-06T01:25:33.681Z,4.83
2018-05-06T01:28:02.774Z,5.23
2018-05-06T01:30:31.858Z,4.80
2018-05-06T01:33:01.057Z,5.50
2018-05-06T01:35:30.254Z,5.53
2018-05-06T01:37:59.553Z,5.60
2018-05-06T01:40:29.672Z,5.00
2018-05-06T01:42:58.881Z,5.80
2018-05-06T01:45:27.961Z,6.50
2018-05-06T01:47:58.057Z,6.30
2018-05-06T01:50:27.342Z,6.53
2018-05-06T01:52:56.501Z,5.70
2018-05-06T01:55:25.661Z,6.77
2018-05-06T01:57:54.765Z,5.70
2018-05-06T02:00:23.960Z,6.50
2018-05-06T02:02:53.054Z,5.83
2018-05-06T02:05:22.151Z,5.93
2018-05-06T02:07:51.344Z,5.60
2018-05-06T02:10:20.549Z,6.20
2018-05-06T02:12:49.637Z,6.10
2018-05-06T02:15:18.755Z,6.80
2018-05-06T02:17:47.853Z,6.57
2018-05-06T02:20:17.002Z,6.70
2018-05-06T02:22:46.128Z,6.40
2018-05-06T02:25:15.327Z,6.70
2018-05-06T02:27:44.415Z,5.47
2018-05-06T02:30:13.598Z,6.80
2018-05-06T02:32:42.797Z,6.63
2018-05-06T02:35:12.004Z,7.30
2018-05-06T02:37:41.078Z,6.47
2018-05-06T02:40:10.276Z,6.70
2018-05-06T02:42:39.380Z,6.70
2018-05-06T02:45:08.474Z,6.63
2018-05-06T02:47:37.678Z,6.23
2018-05-06T02:50:06.908Z,6.23
2018-05-06T02:52:36.024Z,6.60
2018-05-06T02:55:05.216Z,7.23
2018-05-06T02:57:34.304Z,7.23
2018-05-06T03:00:03.427Z,6.43
2018-05-06T03:02:32.528Z,9.90
2018-05-06T03:05:01.627Z,25.23
2018-05-06T03:07:30.717Z,6.83
2018-05-06T03:09:59.823Z,6.60
2018-05-06T03:12:29.226Z,6.60
2018-05-06T03:14:58.317Z,6.97
2018-05-06T03:17:27.501Z,6.33
2018-05-06T03:19:57.526Z,6.87
2018-05-06T03:22:26.735Z,6.97
2018-05-06T03:24:55.825Z,7.13
2018-05-06T03:27:24.938Z,7.00
2018-05-06T03:29:54.108Z,6.80
2018-05-06T03:32:23.298Z,7.20
2018-05-06T03:34:52.389Z,6.73
2018-05-06T03:37:21.493Z,7.03
2018-05-06T03:39:50.685Z,6.47
2018-05-06T03:42:19.868Z,7.03
2018-05-06T03:44:48.969Z,6.93
2018-05-06T03:47:18.163Z,7.20
2018-05-06T03:49:47.265Z,6.70
2018-05-06T03:52:16.453Z,7.80
2018-05-06T03:54:45.557Z,8.10
2018-05-06T04:00:15.748Z,7.40
2018-05-06T04:02:44.897Z,7.43
2018-05-06T04:05:14.032Z,7.90
2018-05-06T04:07:43.171Z,8.80
2018-05-06T04:10:12.285Z,7.53
2018-05-06T04:12:41.391Z,8.23
2018-05-06T04:15:10.476Z,7.90
2018-05-06T04:17:39.553Z,8.37
2018-05-06T04:20:08.672Z,7.70
2018-05-06T04:22:37.849Z,7.97
2018-05-06T04:25:07.932Z,8.13
2018-05-06T04:27:37.061Z,8.10
2018-05-06T04:30:06.158Z,8.40
2018-05-06T04:32:35.272Z,7.97
2018-05-06T04:35:04.373Z,7.67
2018-05-06T04:37:33.487Z,8.30
2018-05-06T04:40:02.605Z,8.17
2018-05-06T04:42:31.723Z,7.93
2018-05-06T04:45:00.901Z,7.57
2018-05-06T04:47:30.126Z,8.23
2018-05-06T04:49:59.236Z,8.47
2018-05-06T04:52:28.397Z,8.07
2018-05-06T04:54:57.587Z,7.27
2018-05-06T04:57:26.781Z,6.90
2018-05-06T04:59:56.020Z,8.10
2018-05-06T05:02:25.154Z,6.57
2018-05-06T05:04:54.282Z,6.70
2018-05-06T05:07:23.471Z,6.83
2018-05-06T05:09:52.561Z,6.20
2018-05-06T05:12:21.757Z,7.10
2018-05-06T05:14:50.861Z,6.50
2018-05-06T05:17:20.075Z,6.60
2018-05-06T05:19:49.258Z,6.80
2018-05-06T05:22:18.445Z,7.13
2018-05-06T05:24:47.533Z,6.67
2018-05-06T05:27:16.637Z,5.90
2018-05-06T05:29:45.748Z,6.30
2018-05-06T05:32:14.926Z,6.30
2018-05-06T05:34:44.021Z,5.57
2018-05-06T05:37:13.123Z,6.10
2018-05-06T05:39:42.239Z,6.60
2018-05-06T05:42:11.369Z,6.33
2018-05-06T05:44:40.458Z,7.77
2018-05-06T05:47:09.587Z,6.57
2018-05-06T05:49:38.779Z,7.77
2018-05-06T05:52:08.877Z,5.90
2018-05-06T05:54:36.346Z,5.83
2018-05-06T05:57:03.811Z,6.03
2018-05-06T05:59:31.246Z,6.40
2018-05-06T06:01:58.818Z,6.80
2018-05-06T06:04:26.262Z,7.03
2018-05-06T06:06:53.749Z,6.70
2018-05-06T06:09:21.194Z,7.13
2018-05-06T06:11:48.763Z,6.30
2018-05-06T06:14:16.220Z,7.37
2018-05-06T06:16:43.772Z,5.90
2018-05-06T06:19:11.238Z,7.07
2018-05-06T06:21:38.862Z,7.30
2018-05-06T06:24:06.354Z,6.43
2018-05-06T06:26:34.578Z,6.97
2018-05-06T06:29:02.019Z,6.20
2018-05-06T06:31:29.485Z,6.97
2018-05-06T06:33:56.956Z,6.97
2018-05-06T06:36:24.397Z,6.53
2018-05-06T06:38:51.857Z,7.23
2018-05-06T06:41:19.327Z,6.53
2018-05-06T06:43:46.873Z,6.10
2018-05-06T06:46:14.329Z,6.07
2018-05-06T06:48:41.821Z,6.67
2018-05-06T06:51:09.360Z,6.57
2018-05-06T06:53:36.931Z,5.60
2018-05-06T06:56:04.395Z,5.70
2018-05-06T06:58:31.938Z,6.30
2018-05-06T07:00:59.481Z,5.83
2018-05-06T07:03:26.935Z,5.93
2018-05-06T07:05:54.441Z,5.63
2018-05-06T07:08:21.946Z,5.60
2018-05-06T07:10:49.419Z,5.33
2018-05-06T07:13:16.849Z,5.60
2018-05-06T07:15:44.433Z,5.67
2018-05-06T07:18:11.876Z,5.80
2018-05-06T07:20:39.320Z,5.87
2018-05-06T07:23:06.903Z,5.37
2018-05-06T07:25:34.342Z,5.07
2018-05-06T07:28:01.806Z,5.80
2018-05-06T07:30:29.360Z,5.63
2018-05-06T07:32:57.842Z,5.20
2018-05-06T07:35:25.412Z,5.00
2018-05-06T07:37:52.868Z,4.73
2018-05-06T07:40:20.415Z,4.63
2018-05-06T07:42:47.946Z,4.70
2018-05-06T07:45:15.421Z,4.73
2018-05-06T07:47:42.874Z,4.33
2018-05-06T07:50:10.333Z,4.40
2018-05-06T07:52:37.788Z,3.97
2018-05-06T07:55:05.553Z,4.20
2018-05-06T07:57:32.997Z,4.43
2018-05-06T08:00:00.466Z,4.17
2018-05-06T08:02:28.095Z,4.37
2018-05-06T08:04:55.582Z,4.40
2018-05-06T08:07:23.074Z,4.17
2018-05-06T08:09:51.691Z,4.00
2018-05-06T08:12:19.764Z,5.00
2018-05-06T08:14:47.369Z,3.90
2018-05-06T08:17:14.813Z,3.93
2018-05-06T08:19:42.268Z,4.13
2018-05-06T08:22:09.831Z,4.27
2018-05-06T08:24:38.388Z,4.30
2018-05-06T08:27:05.849Z,3.93
2018-05-06T08:29:33.425Z,4.10
2018-05-06T08:32:02.374Z,3.53
2018-05-06T08:34:29.867Z,3.40
2018-05-06T08:36:58.308Z,3.90
2018-05-06T08:39:26.073Z,4.20
2018-05-06T08:41:53.569Z,3.90
2018-05-06T08:44:21.147Z,3.13
2018-05-06T08:46:48.601Z,3.50
2018-05-06T08:49:16.149Z,4.40
2018-05-06T08:51:43.606Z,3.53
2018-05-06T08:54:11.148Z,3.10
2018-05-06T08:56:38.597Z,3.47
2018-05-06T08:59:06.053Z,3.97
2018-05-06T09:01:33.493Z,3.57
2018-05-06T09:04:02.370Z,3.83
2018-05-06T09:06:29.807Z,3.20
2018-05-06T09:08:57.313Z,3.30
2018-05-06T09:11:24.925Z,3.33
2018-05-06T09:13:53.294Z,3.20
2018-05-06T09:16:20.741Z,3.30
2018-05-06T09:18:48.967Z,3.20
2018-05-06T09:21:16.431Z,3.00
2018-05-06T09:23:43.984Z,3.17
2018-05-06T09:26:11.414Z,3.10
2018-05-06T09:28:38.905Z,3.60
2018-05-06T09:31:07.384Z,3.80
2018-05-06T09:33:34.922Z,3.07
2018-05-06T09:36:02.378Z,3.83
2018-05-06T09:38:29.837Z,3.23
2018-05-06T09:40:57.277Z,3.50
2018-05-06T09:43:24.726Z,3.30
2018-05-06T09:45:52.164Z,3.33
2018-05-06T09:48:19.646Z,3.93
2018-05-06T09:50:47.146Z,3.70
2018-05-06T09:53:14.886Z,3.70
2018-05-06T09:55:42.325Z,3.87
2018-05-06T09:58:09.757Z,3.30
2018-05-06T10:00:37.205Z,3.90
2018-05-06T10:03:05.654Z,3.80
2018-05-06T10:05:33.118Z,3.27
2018-05-06T10:08:01.354Z,3.50
2018-05-06T10:10:28.798Z,4.07
2018-05-06T10:12:56.363Z,3.43
2018-05-06T10:15:23.802Z,3.00
2018-05-06T10:17:51.821Z,3.90
2018-05-06T10:20:19.287Z,3.47
2018-05-06T10:22:47.510Z,4.20
2018-05-06T10:25:14.958Z,3.20
2018-05-06T10:27:42.400Z,3.60
2018-05-06T10:30:09.839Z,3.03
2018-05-06T10:32:37.312Z,3.47
2018-05-06T10:35:04.769Z,3.30
2018-05-06T10:37:32.210Z,3.60
2018-05-06T10:39:59.729Z,3.43
2018-05-06T10:42:27.388Z,3.00
2018-05-06T10:44:54.871Z,3.27
2018-05-06T10:47:23.115Z,3.03
2018-05-06T10:49:50.540Z,3.40
2018-05-06T10:52:18.010Z,2.90
2018-05-06T10:54:45.561Z,3.20
2018-05-06T10:57:13.435Z,3.67
2018-05-06T10:59:40.975Z,3.07
2018-05-06T11:02:08.406Z,3.70
2018-05-06T11:04:35.913Z,3.27
2018-05-06T11:07:03.456Z,2.73
2018-05-06T11:09:30.917Z,2.70
2018-05-06T11:11:58.471Z,2.70
2018-05-06T11:14:25.926Z,3.17
2018-05-06T11:16:53.467Z,3.30
2018-05-06T11:19:20.997Z,2.80
2018-05-06T11:21:49.189Z,3.30
2018-05-06T11:24:17.530Z,2.50
2018-05-06T11:26:45.758Z,2.53
2018-05-06T11:29:13.394Z,2.43
2018-05-06T11:31:40.866Z,2.70
2018-05-06T11:34:09.165Z,2.40
2018-05-06T11:36:36.771Z,2.30
2018-05-06T11:39:04.273Z,2.67
2018-05-06T11:41:31.758Z,2.10
2018-05-06T11:43:59.198Z,2.50
2018-05-06T11:46:26.732Z,2.90
2018-05-06T11:48:54.931Z,2.40
2018-05-06T11:51:23.217Z,2.47
2018-05-06T11:53:51.462Z,2.20
2018-05-06T11:56:19.029Z,2.10
2018-05-06T11:58:47.185Z,2.30
2018-05-06T12:01:14.643Z,2.50
2018-05-06T12:03:43.063Z,2.50
2018-05-06T12:06:11.293Z,2.80
2018-05-06T12:08:38.935Z,2.30
2018-05-06T12:11:06.407Z,2.57
2018-05-06T12:13:33.868Z,2.70
2018-05-06T12:16:01.557Z,2.50
2018-05-06T12:18:29.789Z,2.10
2018-05-06T12:20:57.238Z,3.00
2018-05-06T12:23:24.689Z,2.43
2018-05-06T12:25:52.198Z,2.10
2018-05-06T12:28:19.669Z,2.10
2018-05-06T12:30:47.878Z,2.03
2018-05-06T12:33:15.454Z,2.27
2018-05-06T12:35:42.926Z,2.10
2018-05-06T12:38:10.383Z,2.00
2018-05-06T12:40:37.822Z,2.00
2018-05-06T12:43:05.378Z,1.80
2018-05-06T12:45:32.839Z,2.07
2018-05-06T12:48:00.294Z,2.20
2018-05-06T12:50:27.846Z,2.43
2018-05-06T12:52:55.281Z,2.30
2018-05-06T12:55:22.806Z,2.20
2018-05-06T12:57:50.182Z,1.93
2018-05-06T13:00:17.641Z,2.00
2018-05-06T13:02:46.041Z,2.03
2018-05-06T13:05:13.567Z,2.07
2018-05-06T13:07:41.061Z,2.00
2018-05-06T13:10:08.629Z,2.20
2018-05-06T13:12:36.181Z,1.83
2018-05-06T13:15:03.750Z,1.97
2018-05-06T13:17:31.197Z,2.00
2018-05-06T13:19:58.755Z,2.20
2018-05-06T13:22:26.196Z,2.27
2018-05-06T13:24:53.650Z,2.13
2018-05-06T13:27:21.112Z,2.20
2018-05-06T13:29:48.558Z,2.00
2018-05-06T13:32:16.015Z,3.07
2018-05-06T13:34:43.494Z,2.17
2018-05-06T13:37:10.942Z,1.90
2018-05-06T13:39:38.387Z,2.90
2018-05-06T13:42:05.874Z,2.10
2018-05-06T13:44:34.136Z,2.40
2018-05-06T13:47:01.570Z,2.23
2018-05-06T13:49:29.159Z,1.97
2018-05-06T13:51:56.697Z,2.10
2018-05-06T13:54:24.184Z,2.60
2018-05-06T13:56:52.392Z,2.40
2018-05-06T13:59:19.846Z,2.50
2018-05-06T14:01:47.401Z,1.90
2018-05-06T14:04:14.885Z,2.50
2018-05-06T14:06:42.346Z,2.53
2018-05-06T14:09:09.807Z,2.20
2018-05-06T14:11:37.253Z,2.27
2018-05-06T14:14:04.807Z,2.40
2018-05-06T14:16:32.375Z,2.40
2018-05-06T14:18:59.818Z,2.43
2018-05-06T14:21:27.276Z,2.17
2018-05-06T14:23:54.744Z,2.10
2018-05-06T14:26:22.474Z,2.70
2018-05-06T14:28:49.949Z,2.33
2018-05-06T14:31:17.393Z,2.40
2018-05-06T14:33:44.854Z,2.20
2018-05-06T14:36:12.300Z,2.37
2018-05-06T14:38:39.767Z,2.20
2018-05-06T14:41:07.326Z,2.00
2018-05-06T14:43:34.861Z,2.60
2018-05-06T14:46:02.288Z,2.30
2018-05-06T14:48:29.859Z,2.20
2018-05-06T14:50:57.266Z,3.53
2018-05-06T14:53:25.013Z,2.60
2018-05-06T14:55:52.469Z,2.57
2018-05-06T14:58:19.910Z,2.93
2018-05-06T15:00:47.388Z,2.30
2018-05-06T15:03:14.838Z,2.30
2018-05-06T15:05:42.598Z,2.13
2018-05-06T15:08:10.048Z,2.50
2018-05-06T15:10:37.507Z,2.20
2018-05-06T15:13:04.942Z,2.03
2018-05-06T15:15:32.396Z,2.23
2018-05-06T15:17:59.862Z,2.33
2018-05-06T15:20:27.331Z,2.17
2018-05-06T15:22:54.790Z,2.30
2018-05-06T15:25:22.233Z,2.53
2018-05-06T15:27:49.678Z,2.20
2018-05-06T15:30:17.149Z,2.00
2018-05-06T15:32:44.591Z,2.03
2018-05-06T15:35:12.085Z,2.40
2018-05-06T15:37:39.621Z,2.10
2018-05-06T15:40:07.078Z,2.20
2018-05-06T15:42:34.535Z,2.13
2018-05-06T15:45:01.982Z,2.20
2018-05-06T15:47:29.548Z,2.20
2018-05-06T15:49:56.985Z,2.27
2018-05-06T15:52:24.570Z,1.93
2018-05-06T15:54:52.022Z,2.17
2018-05-06T15:57:19.457Z,1.90
2018-05-06T15:59:46.914Z,1.87
2018-05-06T16:05:33.593Z,2.00
2018-05-06T16:08:01.828Z,2.00
2018-05-06T16:10:29.282Z,1.87
2018-05-06T16:12:59.943Z,1.90
2018-05-06T16:15:27.370Z,1.90
2018-05-06T16:17:54.828Z,2.20
2018-05-06T16:20:22.401Z,2.13
2018-05-06T16:22:49.956Z,2.00
2018-05-06T16:25:17.405Z,2.00
2018-05-06T16:27:44.850Z,2.10
2018-05-06T16:30:12.313Z,1.90
2018-05-06T16:32:42.748Z,2.43
2018-05-06T16:35:10.192Z,1.70
2018-05-06T16:37:37.645Z,1.90
2018-05-06T16:40:05.856Z,1.90
2018-05-06T16:42:33.308Z,1.90
2018-05-06T16:45:01.528Z,1.90
2018-05-06T16:47:29.000Z,1.80
2018-05-06T16:49:57.273Z,2.17
2018-05-06T16:52:24.749Z,1.90
2018-05-06T16:54:53.959Z,2.00
2018-05-06T16:57:22.580Z,2.00
2018-05-06T16:59:50.068Z,1.90
2018-05-06T17:02:17.515Z,1.90
2018-05-06T17:04:45.079Z,2.23
2018-05-06T17:07:12.509Z,2.07
2018-05-06T17:09:40.867Z,2.07
2018-05-06T17:12:08.370Z,2.30
2018-05-06T17:14:35.847Z,2.13
2018-05-06T17:17:03.309Z,2.00
2018-05-06T17:19:31.617Z,2.10
2018-05-06T17:21:59.116Z,2.23
2018-05-06T17:24:26.562Z,2.53
2018-05-06T17:26:54.113Z,2.10
2018-05-06T17:29:21.673Z,2.43
2018-05-06T17:31:49.113Z,2.30
2018-05-06T17:34:16.590Z,2.23
2018-05-06T17:36:44.134Z,2.27
2018-05-06T17:39:11.661Z,2.03
2018-05-06T17:41:40.075Z,2.30
2018-05-06T17:44:08.520Z,2.60
2018-05-06T17:46:36.035Z,2.17
2018-05-06T17:49:03.463Z,2.30
2018-05-06T17:51:31.179Z,2.23
2018-05-06T17:53:58.632Z,2.70
2018-05-06T17:56:27.173Z,2.53
2018-05-06T17:58:54.637Z,2.33
2018-05-06T18:01:22.173Z,2.50
2018-05-06T18:03:49.638Z,2.07
2018-05-06T18:06:17.081Z,2.60
2018-05-06T18:08:44.573Z,2.57
2018-05-06T18:11:12.033Z,2.47
2018-05-06T18:13:39.576Z,2.10
2018-05-06T18:16:07.734Z,2.63
2018-05-06T18:18:35.290Z,2.20
2018-05-06T18:21:02.837Z,2.53
2018-05-06T18:23:30.310Z,2.37
2018-05-06T18:25:58.079Z,2.30
2018-05-06T18:28:25.543Z,2.40
2018-05-06T18:30:53.073Z,2.47
2018-05-06T18:33:20.542Z,2.10
2018-05-06T18:35:48.002Z,2.23
2018-05-06T18:38:15.466Z,2.00
2018-05-06T18:40:43.035Z,2.23
2018-05-06T18:43:11.673Z,2.10
2018-05-06T18:45:40.168Z,2.07
2018-05-06T18:48:07.725Z,2.30
2018-05-06T18:50:35.286Z,2.20
2018-05-06T18:53:02.846Z,2.30
2018-05-06T18:55:30.410Z,2.33
2018-05-06T18:57:57.875Z,2.40
2018-05-06T19:00:26.347Z,2.10
2018-05-06T19:02:53.812Z,2.93
2018-05-06T19:05:22.024Z,2.00
2018-05-06T19:07:50.417Z,2.40
2018-05-06T19:10:17.893Z,2.33
2018-05-06T19:12:45.342Z,2.00
2018-05-06T19:15:13.185Z,2.37
2018-05-06T19:17:40.662Z,2.40
2018-05-06T19:20:08.138Z,2.27
2018-05-06T19:22:35.652Z,2.70
2018-05-06T19:25:03.120Z,2.47
2018-05-06T19:27:30.575Z,2.20
2018-05-06T19:29:58.031Z,3.00
2018-05-06T19:32:25.502Z,2.63
2018-05-06T19:34:52.995Z,2.60
2018-05-06T19:37:20.498Z,2.77
2018-05-06T19:39:48.007Z,2.53
2018-05-06T19:42:15.432Z,2.70
2018-05-06T19:44:42.883Z,2.40
2018-05-06T19:47:10.452Z,2.50
2018-05-06T19:49:38.987Z,3.03
2018-05-06T19:52:07.407Z,2.93
2018-05-06T19:54:35.886Z,2.60
2018-05-06T19:57:03.350Z,2.50
2018-05-06T19:59:31.816Z,2.80
2018-05-06T20:01:59.270Z,2.67
2018-05-06T20:04:26.745Z,3.00
2018-05-06T20:06:54.932Z,3.00
2018-05-06T20:09:23.178Z,2.60
2018-05-06T20:11:50.643Z,2.90
2018-05-06T20:14:18.099Z,3.17
2018-05-06T20:16:45.599Z,3.20
2018-05-06T20:19:13.102Z,3.33
2018-05-06T20:21:40.609Z,2.90
2018-05-06T20:24:08.850Z,2.83
2018-05-06T20:26:36.323Z,3.20
2018-05-06T20:29:04.582Z,3.00
2018-05-06T20:31:32.150Z,3.40
2018-05-06T20:34:01.320Z,2.80
2018-05-06T20:36:28.790Z,3.57
2018-05-06T20:38:56.430Z,3.57
2018-05-06T20:41:24.074Z,3.17
2018-05-06T20:43:51.630Z,3.50
2018-05-06T20:46:19.223Z,3.27
2018-05-06T20:48:46.701Z,3.10
2018-05-06T20:51:14.941Z,3.63
2018-05-06T20:53:46.155Z,3.87
2018-05-06T20:56:13.833Z,3.43
2018-05-06T20:58:43.147Z,3.33
2018-05-06T21:01:10.640Z,3.03
2018-05-06T21:03:38.890Z,3.67
2018-05-06T21:06:06.348Z,3.57
2018-05-06T21:08:33.899Z,3.70
2018-05-06T21:11:01.459Z,3.80
2018-05-06T21:13:29.006Z,3.70
2018-05-06T21:15:56.489Z,3.50
2018-05-06T21:18:24.028Z,3.77
2018-05-06T21:20:51.595Z,3.47
2018-05-06T21:23:19.174Z,3.20
2018-05-06T21:25:47.448Z,3.60
2018-05-06T21:28:15.649Z,3.90
2018-05-06T21:30:43.172Z,3.63
2018-05-06T21:33:10.576Z,3.60
2018-05-06T21:35:38.093Z,3.43
2018-05-06T21:38:05.565Z,3.57
2018-05-06T21:40:33.051Z,3.30
2018-05-06T21:43:01.544Z,4.00
2018-05-06T21:45:29.228Z,3.93
2018-05-06T21:47:56.628Z,4.17
2018-05-06T21:50:24.093Z,3.83
2018-05-06T21:52:51.616Z,4.57
2018-05-06T21:55:19.137Z,3.93
2018-05-06T21:57:46.596Z,3.77
2018-05-06T22:00:14.165Z,3.67
2018-05-06T22:02:41.696Z,4.37
2018-05-06T22:05:09.165Z,3.83
2018-05-06T22:07:36.707Z,3.63
2018-05-06T22:10:04.164Z,4.00
2018-05-06T22:12:31.634Z,3.67
2018-05-06T22:14:59.086Z,3.83
2018-05-06T22:17:26.536Z,4.10
2018-05-06T22:19:53.985Z,4.33
2018-05-06T22:22:21.545Z,4.20
2018-05-06T22:24:49.006Z,4.10
2018-05-06T22:27:16.469Z,4.60
2018-05-06T22:29:43.962Z,4.17
2018-05-06T22:32:12.174Z,4.37
2018-05-06T22:34:39.629Z,4.00
2018-05-06T22:37:07.088Z,4.17
2018-05-06T22:39:34.550Z,4.90
2018-05-06T22:42:02.005Z,4.73
2018-05-06T22:44:29.491Z,4.27
2018-05-06T22:46:57.747Z,4.77
2018-05-06T22:49:25.182Z,4.20
2018-05-06T22:51:52.636Z,5.70
2018-05-06T22:54:20.098Z,4.47
2018-05-06T22:56:47.563Z,5.37
2018-05-06T22:59:15.118Z,4.47
2018-05-06T23:01:42.582Z,4.37
2018-05-06T23:04:10.121Z,4.60
2018-05-06T23:06:37.606Z,4.63
2018-05-06T23:09:05.082Z,5.33
2018-05-06T23:11:32.524Z,4.13
2018-05-06T23:14:00.057Z,4.10
2018-05-06T23:16:27.733Z,4.57
2018-05-06T23:18:55.192Z,4.63
2018-05-06T23:21:24.161Z,5.37
2018-05-06T23:23:51.629Z,5.10
2018-05-06T23:26:19.174Z,4.13
2018-05-06T23:28:46.747Z,4.40
2018-05-06T23:31:14.293Z,5.00
2018-05-06T23:33:41.881Z,4.80
2018-05-06T23:36:10.117Z,5.20
2018-05-06T23:38:37.653Z,4.60
2018-05-06T23:41:05.093Z,4.97
2018-05-06T23:43:32.592Z,4.63
2018-05-06T23:46:00.054Z,4.70
2018-05-06T23:48:27.782Z,4.83
2018-05-06T23:50:55.224Z,5.20
2018-05-06T23:53:22.784Z,4.83
2018-05-06T23:55:50.305Z,4.50
2018-05-06T23:58:18.903Z,4.87
